Terminal Aerodrome Forecast
Issued by NWS

Home | Current Version | Previous Version | Text Only | Print | Product List | Glossary Off
Versions: 1 2 3 4 5 6 7 8 9 10 11 12 13 14 15 16 17 18 19 20 21 22 23 24 25 26 27 28 29 30 31 32 33 34
000 FTUS41 KBOX 061720 TAFFMH TAF KFMH 061720Z 0618/0718 04006KT P6SM FEW200 FM070000 08005KT P6SM BKN015 FM070800 07006KT 5SM -RA OVC015 FM071200 07006KT P6SM VCSH OVC020 FM071600 09006KT P6SM VCSH OVC015=

USA.gov is the U.S. government's official web portal to all federal, state and local government web resources and services.